Terminal Aerodrome Forecast
Issued by NWS

Home | Current Version | Previous Version | Text Only | Print | Product List | Glossary On
Versions: 1 2 3 4 5 6 7 8 9 10 11 12 13 14 15 16 17 18
000
FTUS41 KBGM 281300 AAA
TAFRME
TAF AMD
KRME 281315Z 2813/2912 30005KT P6SM SCT007 OVC012
      TEMPO 2813/2815 BKN007
     FM281600 31010KT P6SM BKN035
     FM282100 29008KT P6SM SCT040
     FM290000 VRB03KT P6SM SKC=

USA.gov is the U.S. government's official web portal to all federal, state and local government web resources and services.